Wetterdaten: Woche 11.01.10 - 17.01.10 (KW2)
Datum Zeit Temperatur Luftfeuchte Luftdruck Niederschlag Wind Richtung Sonnenschein Solar Taupunkt Windchill Windben
11.01.2010 00:00 -4.3 C 82 % 1016.6 hPa 0.0 l/m 0.2 km/h (0 Bft) SO 0.00 h 0 W/m -6.9 C -4.3 C 0.5 km/h (0 Bft)
11.01.2010 01:00 -4.5 C 84 % 1016.6 hPa 0.0 l/m 0.0 km/h (0 Bft) N 0.00 h 0 W/m -6.7 C -4.5 C 0.1 km/h (0 Bft)
11.01.2010 02:00 -4.3 C 86 % 1016.8 hPa 0.0 l/m 0.5 km/h (0 Bft) SO 0.00 h 0 W/m -6.4 C -4.3 C 1.2 km/h (1 Bft)
11.01.2010 03:00 -4.2 C 86 % 1016.9 hPa 0.0 l/m 0.5 km/h (0 Bft) SO 0.00 h 0 W/m -6.2 C -4.2 C 1.1 km/h (1 Bft)
11.01.2010 04:00 -4.2 C 86 % 1016.7 hPa 0.0 l/m 0.1 km/h (0 Bft) SO 0.00 h 0 W/m -6.2 C -4.2 C 1.0 km/h (0 Bft)
11.01.2010 05:00 -4.2 C 86 % 1016.6 hPa 0.0 l/m 0.1 km/h (0 Bft) SO 0.00 h 0 W/m -6.2 C -4.2 C 0.6 km/h (0 Bft)
11.01.2010 06:00 -4.2 C 86 % 1016.5 hPa 0.0 l/m 0.1 km/h (0 Bft) SO 0.00 h 0 W/m -6.2 C -4.2 C 0.7 km/h (0 Bft)
11.01.2010 07:00 -4.2 C 86 % 1016.6 hPa 0.0 l/m 0.1 km/h (0 Bft) SO 0.00 h 0 W/m -6.2 C -4.2 C 0.5 km/h (0 Bft)
11.01.2010 08:00 -4.1 C 86 % 1016.6 hPa 0.0 l/m 0.1 km/h (0 Bft) SO 0.00 h 10 W/m -6.0 C -4.1 C 0.4 km/h (0 Bft)
11.01.2010 09:00 -3.7 C 86 % 1016.6 hPa 0.0 l/m 0.4 km/h (0 Bft) SO 0.00 h 50 W/m -5.7 C -3.7 C 1.4 km/h (1 Bft)
11.01.2010 10:00 -3.1 C 84 % 1016.6 hPa 0.0 l/m 0.5 km/h (0 Bft) SO 0.00 h 107 W/m -5.4 C -3.1 C 1.7 km/h (1 Bft)
11.01.2010 11:00 -1.7 C 76 % 1016.5 hPa 0.0 l/m 2.1 km/h (1 Bft) S 0.80 h 198 W/m -5.5 C -1.8 C 4.7 km/h (1 Bft)
11.01.2010 12:00 -1.1 C 70 % 1016.3 hPa 0.0 l/m 2.2 km/h (1 Bft) SW 0.00 h 134 W/m -5.8 C -1.2 C 4.6 km/h (1 Bft)
11.01.2010 13:00 -1.3 C 70 % 1015.9 hPa 0.0 l/m 2.0 km/h (1 Bft) S 0.00 h 88 W/m -6.0 C -1.5 C 4.7 km/h (1 Bft)
11.01.2010 14:00 -1.5 C 71 % 1015.9 hPa 0.0 l/m 2.5 km/h (1 Bft) S-SO 0.00 h 56 W/m -6.0 C -1.8 C 5.2 km/h (1 Bft)
11.01.2010 15:00 -1.8 C 74 % 1016.4 hPa 0.0 l/m 2.7 km/h (1 Bft) SW 0.00 h 39 W/m -5.7 C -2.0 C 4.9 km/h (1 Bft)
11.01.2010 16:00 -2.5 C 81 % 1016.9 hPa 0.2 l/m 3.0 km/h (1 Bft) S-SO 0.00 h 13 W/m -5.3 C -2.8 C 6.1 km/h (2 Bft)
11.01.2010 17:00 -3.0 C 85 % 1017.2 hPa 0.0 l/m 3.0 km/h (1 Bft) S-SO 0.00 h 0 W/m -5.2 C -3.3 C 5.9 km/h (2 Bft)
11.01.2010 18:00 -3.0 C 87 % 1017.6 hPa 0.2 l/m 1.9 km/h (1 Bft) S-SO 0.00 h 0 W/m -4.9 C -3.2 C 4.0 km/h (1 Bft)
11.01.2010 19:00 -3.0 C 88 % 1017.9 hPa 0.0 l/m 1.1 km/h (0 Bft) S-SO 0.00 h 0 W/m -4.7 C -3.1 C 3.0 km/h (1 Bft)
11.01.2010 20:00 -3.1 C 88 % 1018.2 hPa 0.0 l/m 1.5 km/h (1 Bft) S 0.00 h 0 W/m -4.8 C -3.1 C 3.5 km/h (1 Bft)
11.01.2010 21:00 -3.1 C 89 % 1018.2 hPa 0.2 l/m 1.7 km/h (1 Bft) S-SO 0.00 h 0 W/m -4.7 C -3.2 C 3.9 km/h (1 Bft)
11.01.2010 22:00 -3.1 C 89 % 1018.0 hPa 0.0 l/m 2.3 km/h (1 Bft) S-SO 0.00 h 0 W/m -4.6 C -3.2 C 4.5 km/h (1 Bft)
11.01.2010 23:00 -3.1 C 89 % 1018.2 hPa 0.2 l/m 0.9 km/h (0 Bft) S 0.00 h 0 W/m -4.6 C -3.1 C 2.7 km/h (1 Bft)
12.01.2010 00:00 -3.2 C 89 % 1018.2 hPa 0.0 l/m 0.8 km/h (0 Bft) S 0.00 h 0 W/m -4.6 C -3.2 C 2.4 km/h (1 Bft)
12.01.2010 01:00 -3.2 C 90 % 1018.1 hPa 0.2 l/m 1.8 km/h (1 Bft) S-SO 0.00 h 0 W/m -4.6 C -3.2 C 3.7 km/h (1 Bft)
12.01.2010 02:00 -3.1 C 90 % 1018.2 hPa 0.0 l/m 1.6 km/h (1 Bft) S-SO 0.00 h 0 W/m -4.5 C -3.1 C 3.9 km/h (1 Bft)
12.01.2010 03:00 -3.1 C 90 % 1018.1 hPa 0.0 l/m 1.1 km/h (1 Bft) S-SO 0.00 h 0 W/m -4.4 C -3.1 C 3.0 km/h (1 Bft)
12.01.2010 04:00 -3.0 C 90 % 1018.0 hPa 0.0 l/m 0.6 km/h (0 Bft) S-SO 0.00 h 0 W/m -4.4 C -3.0 C 1.7 km/h (1 Bft)
12.01.2010 05:00 -3.1 C 90 % 1018.0 hPa 0.0 l/m 0.1 km/h (0 Bft) S-SW 0.00 h 0 W/m -4.5 C -3.1 C 1.1 km/h (1 Bft)
12.01.2010 06:00 -3.2 C 90 % 1017.8 hPa 0.0 l/m 0.2 km/h (0 Bft) S-SW 0.00 h 0 W/m -4.6 C -3.2 C 1.2 km/h (1 Bft)
12.01.2010 07:00 -3.3 C 90 % 1017.4 hPa 0.0 l/m 0.7 km/h (0 Bft) O-SO 0.00 h 0 W/m -4.7 C -3.3 C 1.7 km/h (1 Bft)
12.01.2010 08:00 -3.5 C 90 % 1016.8 hPa 0.0 l/m 0.4 km/h (0 Bft) O-SO 0.00 h 9 W/m -4.9 C -3.5 C 1.0 km/h (0 Bft)
12.01.2010 09:00 -3.2 C 90 % 1016.4 hPa 0.0 l/m 0.0 km/h (0 Bft) N 0.00 h 26 W/m -4.6 C -3.2 C 0.1 km/h (0 Bft)
12.01.2010 10:00 -2.3 C 89 % 1015.7 hPa 0.0 l/m 0.3 km/h (0 Bft) O-SO 0.00 h 54 W/m -3.9 C -2.3 C 1.7 km/h (1 Bft)
12.01.2010 11:00 -1.0 C 85 % 1014.8 hPa 0.0 l/m 0.4 km/h (0 Bft) SO 0.63 h 234 W/m -3.2 C -1.0 C 1.4 km/h (1 Bft)
12.01.2010 12:00 0.2 C 77 % 1013.7 hPa 0.2 l/m 1.8 km/h (1 Bft) O-SO 0.93 h 279 W/m -3.3 C 0.0 C 3.7 km/h (1 Bft)
12.01.2010 13:00 0.5 C 74 % 1012.9 hPa 0.0 l/m 1.6 km/h (1 Bft) W-NW 0.32 h 177 W/m -3.7 C 0.4 C 3.2 km/h (1 Bft)
12.01.2010 14:00 0.1 C 74 % 1012.1 hPa 0.0 l/m 0.7 km/h (0 Bft) SO 0.00 h 92 W/m -3.9 C 0.1 C 2.3 km/h (1 Bft)
12.01.2010 15:00 -0.9 C 77 % 1011.5 hPa 0.0 l/m 1.8 km/h (1 Bft) O 0.00 h 40 W/m -4.4 C -1.1 C 4.1 km/h (1 Bft)
12.01.2010 16:00 -1.4 C 79 % 1010.8 hPa 0.0 l/m 1.2 km/h (1 Bft) N-NO 0.00 h 12 W/m -4.5 C -1.4 C 3.4 km/h (1 Bft)
12.01.2010 17:00 -1.5 C 81 % 1010.0 hPa 0.0 l/m 0.8 km/h (0 Bft) N-NW 0.00 h 0 W/m -4.4 C -1.5 C 2.5 km/h (1 Bft)
12.01.2010 18:00 -1.5 C 81 % 1009.7 hPa 0.0 l/m 0.5 km/h (0 Bft) N-NO 0.00 h 0 W/m -4.3 C -1.5 C 1.9 km/h (1 Bft)
12.01.2010 19:00 -1.4 C 81 % 1009.2 hPa 0.0 l/m 0.4 km/h (0 Bft) NO 0.00 h 0 W/m -4.2 C -1.4 C 1.7 km/h (1 Bft)
12.01.2010 20:00 -1.4 C 81 % 1008.8 hPa 0.0 l/m 0.5 km/h (0 Bft) O 0.00 h 0 W/m -4.2 C -1.4 C 2.1 km/h (1 Bft)
12.01.2010 21:00 -1.4 C 82 % 1008.2 hPa 0.0 l/m 0.3 km/h (0 Bft) O 0.00 h 0 W/m -4.1 C -1.4 C 1.1 km/h (0 Bft)
12.01.2010 22:00 -1.5 C 83 % 1007.5 hPa 0.0 l/m 0.7 km/h (0 Bft) NO 0.00 h 0 W/m -4.0 C -1.5 C 2.4 km/h (1 Bft)
12.01.2010 23:00 -1.5 C 83 % 1006.9 hPa 0.0 l/m 1.5 km/h (1 Bft) NO 0.00 h 0 W/m -4.0 C -1.6 C 3.8 km/h (1 Bft)
13.01.2010 00:00 -1.5 C 82 % 1006.5 hPa 0.0 l/m 0.8 km/h (0 Bft) NO 0.00 h 0 W/m -4.2 C -1.5 C 2.7 km/h (1 Bft)
13.01.2010 01:00 -1.5 C 83 % 1007.3 hPa 0.0 l/m 0.2 km/h (0 Bft) O-NO 0.00 h 0 W/m -4.1 C -1.5 C 0.5 km/h (0 Bft)
13.01.2010 02:00 -1.7 C 84 % 1007.3 hPa 0.0 l/m 1.9 km/h (1 Bft) SO 0.00 h 0 W/m -4.1 C -1.9 C 3.5 km/h (1 Bft)
13.01.2010 03:00 -1.8 C 85 % 1006.6 hPa 0.0 l/m 2.6 km/h (1 Bft) O-SO 0.00 h 0 W/m -4.0 C -2.2 C 4.1 km/h (1 Bft)
13.01.2010 04:00 -1.8 C 85 % 1006.4 hPa 0.0 l/m 0.0 km/h (0 Bft) O-SO 0.00 h 0 W/m -4.0 C -1.8 C 0.3 km/h (0 Bft)
13.01.2010 05:00 -1.9 C 85 % 1005.8 hPa 0.0 l/m 0.3 km/h (0 Bft) S-SO 0.00 h 0 W/m -4.1 C -1.9 C 1.5 km/h (1 Bft)
13.01.2010 06:00 -1.9 C 85 % 1005.8 hPa 0.0 l/m 1.5 km/h (1 Bft) O-SO 0.00 h 0 W/m -4.1 C -2.0 C 3.5 km/h (1 Bft)
13.01.2010 07:00 -1.9 C 86 % 1006.1 hPa 0.0 l/m 1.2 km/h (1 Bft) O-SO 0.00 h 0 W/m -4.0 C -2.1 C 2.7 km/h (1 Bft)
13.01.2010 08:00 -2.0 C 85 % 1006.9 hPa 0.0 l/m 2.6 km/h (1 Bft) O-SO 0.00 h 12 W/m -4.2 C -2.2 C 4.2 km/h (1 Bft)
13.01.2010 09:00 -1.8 C 85 % 1007.5 hPa 0.0 l/m 1.4 km/h (1 Bft) O-SO 0.00 h 34 W/m -3.9 C -1.8 C 2.9 km/h (1 Bft)
13.01.2010 10:00 -1.4 C 86 % 1007.9 hPa 0.4 l/m 0.1 km/h (0 Bft) SO 0.00 h 43 W/m -3.4 C -1.4 C 0.5 km/h (0 Bft)
13.01.2010 11:00 -1.1 C 87 % 1008.2 hPa 0.4 l/m 0.6 km/h (0 Bft) SO 0.00 h 60 W/m -2.9 C -1.1 C 1.2 km/h (1 Bft)
13.01.2010 12:00 -0.9 C 88 % 1008.0 hPa 0.4 l/m 0.2 km/h (0 Bft) SO 0.00 h 85 W/m -2.6 C -0.9 C 0.9 km/h (0 Bft)
13.01.2010 13:00 -0.4 C 89 % 1007.7 hPa 0.4 l/m 0.1 km/h (0 Bft) O-SO 0.00 h 101 W/m -2.0 C -0.4 C 0.7 km/h (0 Bft)
13.01.2010 14:00 0.4 C 89 % 1007.6 hPa 0.0 l/m 0.1 km/h (0 Bft) O-SO 0.00 h 100 W/m -1.2 C 0.4 C 0.2 km/h (0 Bft)
13.01.2010 15:00 0.8 C 88 % 1007.8 hPa 0.0 l/m 0.4 km/h (0 Bft) O-SO 0.00 h 61 W/m -0.9 C 0.8 C 1.1 km/h (1 Bft)
13.01.2010 16:00 0.9 C 89 % 1008.0 hPa 0.0 l/m 0.1 km/h (0 Bft) SO 0.00 h 17 W/m -0.8 C 0.9 C 0.4 km/h (0 Bft)
13.01.2010 17:00 0.5 C 89 % 1008.4 hPa 0.0 l/m 0.2 km/h (0 Bft) NO 0.00 h 0 W/m -1.0 C 0.5 C 0.9 km/h (0 Bft)
13.01.2010 18:00 0.3 C 90 % 1008.8 hPa 0.2 l/m 0.0 km/h (0 Bft) N 0.00 h 0 W/m -1.2 C 0.3 C 0.0 km/h (0 Bft)
13.01.2010 19:00 0.2 C 91 % 1009.3 hPa 0.2 l/m 0.0 km/h (0 Bft) N 0.00 h 0 W/m -1.1 C 0.2 C 0.0 km/h (0 Bft)
13.01.2010 20:00 0.3 C 92 % 1009.5 hPa 0.0 l/m 0.0 km/h (0 Bft) NO 0.00 h 0 W/m -0.9 C 0.3 C 0.3 km/h (0 Bft)
13.01.2010 21:00 0.7 C 93 % 1009.6 hPa 0.0 l/m 0.2 km/h (0 Bft) NO 0.00 h 0 W/m -0.4 C 0.7 C 0.6 km/h (0 Bft)
13.01.2010 22:00 0.7 C 94 % 1009.5 hPa 0.0 l/m 0.1 km/h (0 Bft) O-SO 0.00 h 0 W/m -0.2 C 0.7 C 0.6 km/h (0 Bft)
13.01.2010 23:00 0.8 C 95 % 1009.4 hPa 0.2 l/m 0.7 km/h (0 Bft) O-SO 0.00 h 0 W/m 0.1 C 0.7 C 1.6 km/h (1 Bft)
14.01.2010 00:00 1.1 C 95 % 1008.9 hPa 0.0 l/m 1.1 km/h (1 Bft) O-SO 0.00 h 0 W/m 0.4 C 1.1 C 2.2 km/h (1 Bft)
14.01.2010 01:00 0.9 C 95 % 1008.5 hPa 0.0 l/m 0.1 km/h (0 Bft) O-SO 0.00 h 0 W/m 0.2 C 0.9 C 0.5 km/h (0 Bft)
14.01.2010 02:00 0.7 C 95 % 1008.1 hPa 0.0 l/m 0.1 km/h (0 Bft) O-NO 0.00 h 0 W/m 0.0 C 0.7 C 0.5 km/h (0 Bft)
14.01.2010 03:00 0.6 C 95 % 1008.1 hPa 0.0 l/m 0.1 km/h (0 Bft) O-NO 0.00 h 0 W/m -0.1 C 0.6 C 0.4 km/h (0 Bft)
14.01.2010 04:00 0.6 C 95 % 1007.8 hPa 0.0 l/m 0.1 km/h (0 Bft) O-NO 0.00 h 0 W/m -0.1 C 0.6 C 0.2 km/h (0 Bft)
14.01.2010 05:00 0.6 C 96 % 1007.6 hPa 0.0 l/m 0.0 km/h (0 Bft) O-NO 0.00 h 0 W/m 0.1 C 0.6 C 0.2 km/h (0 Bft)
14.01.2010 06:00 0.7 C 96 % 1007.3 hPa 0.0 l/m 0.1 km/h (0 Bft) NO 0.00 h 0 W/m 0.1 C 0.7 C 0.3 km/h (0 Bft)
14.01.2010 07:00 0.7 C 96 % 1007.2 hPa 0.0 l/m 0.7 km/h (0 Bft) NO 0.00 h 0 W/m 0.1 C 0.7 C 2.0 km/h (1 Bft)
14.01.2010 08:00 0.5 C 96 % 1007.1 hPa 0.0 l/m 1.7 km/h (1 Bft) N 0.00 h 10 W/m -0.1 C 0.3 C 4.0 km/h (1 Bft)
14.01.2010 09:00 0.4 C 96 % 1006.9 hPa 0.0 l/m 2.9 km/h (1 Bft) N 0.00 h 27 W/m -0.1 C 0.1 C 5.9 km/h (2 Bft)
14.01.2010 10:00 0.7 C 96 % 1007.1 hPa 0.0 l/m 2.5 km/h (1 Bft) N-NO 0.00 h 65 W/m 0.1 C 0.4 C 5.3 km/h (1 Bft)
14.01.2010 11:00 1.3 C 96 % 1006.6 hPa 0.0 l/m 0.9 km/h (0 Bft) O 0.00 h 102 W/m 0.7 C 1.3 C 2.6 km/h (1 Bft)
14.01.2010 12:00 1.8 C 95 % 1005.8 hPa 0.0 l/m 1.5 km/h (1 Bft) SO 0.00 h 115 W/m 1.0 C 1.7 C 3.2 km/h (1 Bft)
14.01.2010 13:00 2.4 C 91 % 1005.3 hPa 0.0 l/m 1.8 km/h (1 Bft) O-SO 0.00 h 97 W/m 1.1 C 2.2 C 4.3 km/h (1 Bft)
14.01.2010 14:00 2.8 C 87 % 1005.2 hPa 0.0 l/m 2.8 km/h (1 Bft) N-NO 0.00 h 77 W/m 0.8 C 2.4 C 6.1 km/h (2 Bft)
14.01.2010 15:00 2.6 C 85 % 1005.7 hPa 0.0 l/m 2.0 km/h (1 Bft) N 0.00 h 31 W/m 0.2 C 2.3 C 5.0 km/h (1 Bft)
14.01.2010 16:00 2.3 C 84 % 1006.0 hPa 0.0 l/m 1.6 km/h (1 Bft) N-NO 0.00 h 11 W/m -0.1 C 2.2 C 3.7 km/h (1 Bft)
14.01.2010 17:00 2.2 C 84 % 1006.5 hPa 0.0 l/m 2.0 km/h (1 Bft) NO 0.00 h 0 W/m -0.2 C 1.9 C 4.5 km/h (1 Bft)
14.01.2010 18:00 2.2 C 83 % 1007.0 hPa 0.0 l/m 1.8 km/h (1 Bft) NO 0.00 h 0 W/m -0.3 C 2.0 C 4.1 km/h (1 Bft)
14.01.2010 19:00 2.0 C 83 % 1007.9 hPa 0.0 l/m 1.8 km/h (1 Bft) O 0.00 h 0 W/m -0.5 C 2.0 C 4.5 km/h (1 Bft)
14.01.2010 20:00 1.8 C 83 % 1008.8 hPa 0.0 l/m 1.8 km/h (1 Bft) NO 0.00 h 0 W/m -0.7 C 1.7 C 4.4 km/h (1 Bft)
14.01.2010 21:00 1.4 C 83 % 1009.6 hPa 0.0 l/m 1.9 km/h (1 Bft) O 0.00 h 0 W/m -1.1 C 1.2 C 5.3 km/h (1 Bft)
14.01.2010 22:00 1.2 C 84 % 1010.6 hPa 0.0 l/m 1.7 km/h (1 Bft) NO 0.00 h 0 W/m -1.2 C 1.2 C 4.6 km/h (1 Bft)
14.01.2010 23:00 1.1 C 84 % 1011.5 hPa 0.0 l/m 1.8 km/h (1 Bft) O 0.00 h 0 W/m -1.3 C 1.0 C 4.2 km/h (1 Bft)
15.01.2010 00:00 1.0 C 85 % 1012.2 hPa 0.0 l/m 0.6 km/h (0 Bft) O-SO 0.00 h 0 W/m -1.3 C 1.0 C 2.1 km/h (1 Bft)
15.01.2010 01:00 0.8 C 86 % 1012.7 hPa 0.0 l/m 0.3 km/h (0 Bft) O-SO 0.00 h 0 W/m -1.2 C 0.8 C 1.2 km/h (1 Bft)
15.01.2010 02:00 0.8 C 86 % 1013.4 hPa 0.0 l/m 0.1 km/h (0 Bft) O-SO 0.00 h 0 W/m -1.2 C 0.8 C 0.3 km/h (0 Bft)
15.01.2010 03:00 0.8 C 87 % 1014.4 hPa 0.0 l/m 0.3 km/h (0 Bft) SO 0.00 h 0 W/m -1.2 C 0.8 C 1.0 km/h (0 Bft)
15.01.2010 04:00 0.8 C 87 % 1015.3 hPa 0.0 l/m 0.1 km/h (0 Bft) SO 0.00 h 0 W/m -1.2 C 0.8 C 0.4 km/h (0 Bft)
15.01.2010 05:00 0.7 C 87 % 1016.0 hPa 0.0 l/m 0.1 km/h (0 Bft) SO 0.00 h 0 W/m -1.2 C 0.7 C 0.8 km/h (0 Bft)
15.01.2010 06:00 0.6 C 86 % 1017.0 hPa 0.0 l/m 1.1 km/h (1 Bft) O-SO 0.00 h 0 W/m -1.4 C 0.5 C 2.3 km/h (1 Bft)
15.01.2010 07:00 0.5 C 86 % 1018.1 hPa 0.0 l/m 2.8 km/h (1 Bft) O-SO 0.00 h 0 W/m -1.6 C 0.3 C 4.7 km/h (1 Bft)
15.01.2010 08:00 0.5 C 87 % 1019.0 hPa 0.0 l/m 1.0 km/h (0 Bft) O 0.00 h 11 W/m -1.5 C 0.4 C 2.3 km/h (1 Bft)
15.01.2010 09:00 0.7 C 87 % 1019.9 hPa 0.0 l/m 0.4 km/h (0 Bft) W-NW 0.00 h 27 W/m -1.2 C 0.7 C 1.1 km/h (0 Bft)
15.01.2010 10:00 1.1 C 86 % 1020.6 hPa 0.0 l/m 0.1 km/h (0 Bft) S-SO 0.00 h 78 W/m -0.9 C 1.1 C 0.3 km/h (0 Bft)
15.01.2010 11:00 1.9 C 84 % 1021.2 hPa 0.0 l/m 0.0 km/h (0 Bft) S-SO 0.00 h 64 W/m -0.6 C 1.9 C 0.4 km/h (0 Bft)
15.01.2010 12:00 2.3 C 82 % 1021.5 hPa 0.0 l/m 0.5 km/h (0 Bft) W-NW 0.00 h 116 W/m -0.5 C 2.3 C 1.4 km/h (1 Bft)
15.01.2010 13:00 2.5 C 81 % 1021.9 hPa 0.0 l/m 0.7 km/h (0 Bft) W-NW 0.00 h 83 W/m -0.4 C 2.5 C 1.8 km/h (1 Bft)
15.01.2010 14:00 2.7 C 81 % 1022.4 hPa 0.0 l/m 0.1 km/h (0 Bft) W-NW 0.00 h 80 W/m -0.3 C 2.7 C 0.3 km/h (0 Bft)
15.01.2010 15:00 2.8 C 80 % 1023.1 hPa 0.0 l/m 1.8 km/h (1 Bft) W-NW 0.00 h 54 W/m -0.3 C 2.6 C 3.5 km/h (1 Bft)
15.01.2010 16:00 2.5 C 80 % 1023.8 hPa 0.0 l/m 3.9 km/h (1 Bft) W-NW 0.00 h 20 W/m -0.6 C 1.9 C 6.2 km/h (2 Bft)
15.01.2010 17:00 2.1 C 81 % 1024.6 hPa 0.0 l/m 1.6 km/h (1 Bft) W-NW 0.00 h 0 W/m -0.8 C 2.0 C 3.2 km/h (1 Bft)
15.01.2010 18:00 1.9 C 83 % 1025.0 hPa 0.0 l/m 1.3 km/h (1 Bft) W-NW 0.00 h 0 W/m -0.7 C 1.9 C 2.8 km/h (1 Bft)
15.01.2010 19:00 1.7 C 84 % 1025.3 hPa 0.0 l/m 0.1 km/h (0 Bft) W-NW 0.00 h 0 W/m -0.7 C 1.7 C 0.2 km/h (0 Bft)
15.01.2010 20:00 1.5 C 85 % 1025.5 hPa 0.0 l/m 0.1 km/h (0 Bft) W-NW 0.00 h 0 W/m -0.7 C 1.5 C 0.4 km/h (0 Bft)
15.01.2010 21:00 1.4 C 84 % 1025.5 hPa 0.0 l/m 0.6 km/h (0 Bft) O-NO 0.00 h 0 W/m -1.0 C 1.4 C 1.7 km/h (1 Bft)
15.01.2010 22:00 1.3 C 84 % 1025.5 hPa 0.0 l/m 0.3 km/h (0 Bft) O-SO 0.00 h 0 W/m -1.1 C 1.3 C 1.2 km/h (1 Bft)
15.01.2010 23:00 1.2 C 84 % 1025.5 hPa 0.0 l/m 0.3 km/h (0 Bft) N-NO 0.00 h 0 W/m -1.2 C 1.2 C 0.9 km/h (0 Bft)
16.01.2010 00:00 1.2 C 84 % 1025.4 hPa 0.0 l/m 0.8 km/h (0 Bft) NO 0.00 h 0 W/m -1.2 C 1.2 C 2.6 km/h (1 Bft)
16.01.2010 01:00 1.1 C 84 % 1025.3 hPa 0.0 l/m 0.5 km/h (0 Bft) N-NO 0.00 h 0 W/m -1.3 C 1.1 C 2.1 km/h (1 Bft)
16.01.2010 02:00 1.0 C 84 % 1024.9 hPa 0.0 l/m 0.5 km/h (0 Bft) N-NO 0.00 h 0 W/m -1.4 C 1.0 C 1.8 km/h (1 Bft)
16.01.2010 03:00 0.8 C 84 % 1024.8 hPa 0.0 l/m 0.4 km/h (0 Bft) N-NO 0.00 h 0 W/m -1.6 C 0.8 C 1.5 km/h (1 Bft)
16.01.2010 04:00 0.7 C 84 % 1024.4 hPa 0.0 l/m 1.3 km/h (1 Bft) NO 0.00 h 0 W/m -1.7 C 0.6 C 3.5 km/h (1 Bft)
16.01.2010 05:00 0.4 C 85 % 1024.1 hPa 0.0 l/m 0.3 km/h (0 Bft) N-NO 0.00 h 0 W/m -1.8 C 0.4 C 1.8 km/h (1 Bft)
16.01.2010 06:00 0.4 C 85 % 1023.4 hPa 0.0 l/m 0.1 km/h (0 Bft) O-NO 0.00 h 0 W/m -1.8 C 0.4 C 0.9 km/h (0 Bft)
16.01.2010 07:00 0.4 C 85 % 1023.1 hPa 0.0 l/m 0.0 km/h (0 Bft) O-NO 0.00 h 0 W/m -1.8 C 0.4 C 0.5 km/h (0 Bft)
16.01.2010 08:00 0.3 C 85 % 1022.4 hPa 0.0 l/m 0.0 km/h (0 Bft) O-NO 0.00 h 11 W/m -1.9 C 0.3 C 0.3 km/h (0 Bft)
16.01.2010 09:00 0.5 C 85 % 1022.1 hPa 0.0 l/m 0.8 km/h (0 Bft) O 0.00 h 27 W/m -1.8 C 0.4 C 2.1 km/h (1 Bft)
16.01.2010 10:00 0.6 C 82 % 1021.8 hPa 0.0 l/m 2.0 km/h (1 Bft) O 0.00 h 54 W/m -2.1 C 0.4 C 4.6 km/h (1 Bft)
16.01.2010 11:00 0.8 C 79 % 1021.4 hPa 0.0 l/m 2.3 km/h (1 Bft) SO 0.00 h 97 W/m -2.3 C 0.6 C 4.6 km/h (1 Bft)
16.01.2010 12:00 1.2 C 77 % 1020.8 hPa 0.0 l/m 2.0 km/h (1 Bft) S 0.00 h 124 W/m -2.4 C 1.1 C 4.0 km/h (1 Bft)
16.01.2010 13:00 1.1 C 76 % 1020.2 hPa 0.0 l/m 1.6 km/h (1 Bft) O-SO 0.00 h 101 W/m -2.7 C 1.0 C 3.5 km/h (1 Bft)
16.01.2010 14:00 0.8 C 79 % 1019.7 hPa 0.0 l/m 3.9 km/h (1 Bft) SO 0.00 h 69 W/m -2.5 C 0.0 C 7.1 km/h (2 Bft)
16.01.2010 15:00 0.5 C 80 % 1019.1 hPa 0.0 l/m 3.2 km/h (1 Bft) SO 0.00 h 44 W/m -2.5 C 0.0 C 5.7 km/h (1 Bft)
16.01.2010 16:00 0.5 C 79 % 1018.8 hPa 0.0 l/m 0.3 km/h (0 Bft) O-SO 0.00 h 14 W/m -2.6 C 0.5 C 1.0 km/h (0 Bft)
16.01.2010 17:00 0.2 C 81 % 1018.6 hPa 0.0 l/m 1.6 km/h (1 Bft) O-SO 0.00 h 0 W/m -2.7 C 0.2 C 3.1 km/h (1 Bft)
16.01.2010 18:00 0.1 C 81 % 1018.5 hPa 0.0 l/m 1.2 km/h (1 Bft) O-SO 0.00 h 0 W/m -2.7 C 0.1 C 2.9 km/h (1 Bft)
16.01.2010 19:00 0.1 C 82 % 1018.0 hPa 0.0 l/m 1.8 km/h (1 Bft) O-SO 0.00 h 0 W/m -2.6 C -0.0 C 3.6 km/h (1 Bft)
16.01.2010 20:00 0.3 C 83 % 1017.3 hPa 0.0 l/m 0.2 km/h (0 Bft) S 0.00 h 0 W/m -2.3 C 0.3 C 0.8 km/h (0 Bft)
16.01.2010 21:00 0.3 C 85 % 1016.7 hPa 1.0 l/m 0.1 km/h (0 Bft) SO 0.00 h 0 W/m -1.8 C 0.3 C 0.5 km/h (0 Bft)
16.01.2010 22:00 0.5 C 88 % 1016.2 hPa 2.2 l/m 0.2 km/h (0 Bft) S-SO 0.00 h 0 W/m -1.2 C 0.5 C 0.7 km/h (0 Bft)
16.01.2010 23:00 0.5 C 90 % 1016.2 hPa 1.8 l/m 0.3 km/h (0 Bft) NO 0.00 h 0 W/m -0.9 C 0.5 C 0.7 km/h (0 Bft)
17.01.2010 00:00 1.0 C 92 % 1016.0 hPa 1.4 l/m 0.6 km/h (0 Bft) O-NO 0.00 h 0 W/m -0.1 C 1.0 C 1.8 km/h (1 Bft)
17.01.2010 01:00 0.9 C 93 % 1016.3 hPa 0.0 l/m 1.6 km/h (1 Bft) S-SO 0.00 h 0 W/m -0.0 C 0.7 C 3.3 km/h (1 Bft)
17.01.2010 02:00 2.9 C 95 % 1015.9 hPa 0.0 l/m 5.3 km/h (1 Bft) S 0.00 h 0 W/m 2.3 C 1.7 C 10.6 km/h (2 Bft)
17.01.2010 03:00 3.7 C 94 % 1015.4 hPa 1.0 l/m 8.6 km/h (2 Bft) S-SO 0.00 h 0 W/m 2.8 C 1.5 C 16.0 km/h (3 Bft)
17.01.2010 04:00 3.8 C 92 % 1015.1 hPa 1.2 l/m 2.6 km/h (1 Bft) S-SO 0.00 h 0 W/m 2.7 C 3.4 C 5.4 km/h (1 Bft)
17.01.2010 05:00 3.2 C 93 % 1015.0 hPa 0.0 l/m 2.5 km/h (1 Bft) N 0.00 h 0 W/m 2.1 C 2.8 C 5.1 km/h (1 Bft)
17.01.2010 06:00 3.8 C 94 % 1014.8 hPa 0.0 l/m 5.1 km/h (1 Bft) S-SO 0.00 h 0 W/m 3.0 C 2.8 C 9.0 km/h (2 Bft)
17.01.2010 07:00 4.5 C 93 % 1014.9 hPa 0.2 l/m 7.9 km/h (2 Bft) SW 0.00 h 0 W/m 3.4 C 2.6 C 14.6 km/h (3 Bft)
17.01.2010 08:00 3.8 C 92 % 1015.5 hPa 0.2 l/m 1.6 km/h (1 Bft) NO 0.00 h 6 W/m 2.7 C 3.7 C 3.7 km/h (1 Bft)
17.01.2010 09:00 4.7 C 95 % 1016.6 hPa 0.8 l/m 6.5 km/h (2 Bft) SW 0.00 h 17 W/m 3.9 C 3.5 C 10.8 km/h (2 Bft)
17.01.2010 10:00 5.7 C 93 % 1017.7 hPa 0.0 l/m 11.6 km/h (2 Bft) W 0.12 h 85 W/m 4.6 C 3.4 C 18.7 km/h (3 Bft)
17.01.2010 11:00 6.3 C 83 % 1018.7 hPa 0.0 l/m 13.4 km/h (3 Bft) W 0.00 h 77 W/m 3.7 C 3.7 C 21.1 km/h (4 Bft)
17.01.2010 12:00 6.3 C 79 % 1019.5 hPa 0.0 l/m 16.5 km/h (3 Bft) W 0.00 h 89 W/m 2.9 C 3.2 C 25.6 km/h (4 Bft)
17.01.2010 13:00 6.7 C 73 % 1019.7 hPa 0.0 l/m 16.4 km/h (3 Bft) W 0.23 h 156 W/m 2.3 C 3.7 C 25.3 km/h (4 Bft)
17.01.2010 14:00 6.7 C 72 % 1020.6 hPa 0.0 l/m 16.5 km/h (3 Bft) W 0.12 h 90 W/m 2.1 C 3.7 C 25.7 km/h (4 Bft)
17.01.2010 15:00 6.2 C 74 % 1021.6 hPa 0.0 l/m 17.8 km/h (3 Bft) W 0.00 h 51 W/m 1.8 C 2.9 C 26.5 km/h (4 Bft)
17.01.2010 16:00 6.0 C 72 % 1022.7 hPa 0.0 l/m 9.3 km/h (2 Bft) W 0.10 h 33 W/m 1.3 C 4.1 C 14.3 km/h (3 Bft)
17.01.2010 17:00 5.7 C 70 % 1023.6 hPa 0.0 l/m 4.2 km/h (1 Bft) W-SW 0.00 h 0 W/m 0.7 C 5.2 C 7.3 km/h (2 Bft)
17.01.2010 18:00 5.4 C 72 % 1024.3 hPa 0.0 l/m 1.6 km/h (1 Bft) W-SW 0.00 h 0 W/m 0.7 C 5.3 C 3.4 km/h (1 Bft)
17.01.2010 19:00 5.1 C 75 % 1025.1 hPa 0.0 l/m 1.8 km/h (1 Bft) W-NW 0.00 h 0 W/m 1.0 C 5.0 C 3.5 km/h (1 Bft)
17.01.2010 20:00 4.6 C 77 % 1025.5 hPa 0.0 l/m 1.3 km/h (1 Bft) O 0.00 h 0 W/m 0.9 C 4.6 C 2.7 km/h (1 Bft)
17.01.2010 21:00 4.1 C 78 % 1025.6 hPa 0.0 l/m 1.4 km/h (1 Bft) O-SO 0.00 h 0 W/m 0.6 C 4.1 C 2.4 km/h (1 Bft)
17.01.2010 22:00 3.4 C 81 % 1025.7 hPa 0.0 l/m 1.0 km/h (0 Bft) O 0.00 h 0 W/m 0.5 C 3.3 C 1.7 km/h (1 Bft)
17.01.2010 23:00 2.8 C 84 % 1026.0 hPa 0.0 l/m 0.2 km/h (0 Bft) O 0.00 h 0 W/m 0.5 C 2.8 C 0.5 km/h (0 Bft)
Min-Datum _ 11.01.10 11.01.10 14.01.10 - 11.01.10 - - - 11.01.10 12.01.10 11.01.10
_ Min-Zeit 01:00 12:03 13:45 - 00:01 - - - 00:44 01:40 00:15
Minimum _ -4.6 C 70 % 1005.1 hPa - 0.0 km/h (0 Bft) - - - -7.0 C -5.3 C 0.0 km/h (0 Bft)
Max-Datum _ 17.01.10 14.01.10 17.01.10 16.01.10 17.01.10 - 11.01.10 12.01.10 17.01.10 17.01.10 17.01.10
_ Max-Zeit 13:42 04:49 23:30 22:05 13:27 - 11:00 12:06 10:05 17:02 13:27
Maximum _ 6.9 C 96 % 1026.0 hPa 2.2 l/m 29.5 km/h
W (5 Bft)
- 0.02 h 459 W/m 4.8 C 5.8 C 46.9 km/h
W (6 Bft)
Durchschnitt _ 0.3 C 85 % 1015.3 hPa #13.2 l/m 1.8 km/h (1 Bft) O-SO #3:15 h 26 W/m -1.9 C 0.1 C 3.5 km/h (1 Bft)
© Kaiko 2010